createdAt,value
2018-07-12T00:04:03.833Z,22
2018-07-12T00:14:03.057Z,17.9
2018-07-12T00:24:02.289Z,17.8
2018-07-12T00:34:01.523Z,18.4
2018-07-12T00:44:00.763Z,19.3
2018-07-12T00:53:59.992Z,19.8
2018-07-12T01:03:59.222Z,20.5
2018-07-12T01:13:58.512Z,21
2018-07-12T01:23:57.689Z,21.2
2018-07-12T01:33:56.921Z,21.3
2018-07-12T01:43:56.153Z,21.3
2018-07-12T01:53:55.393Z,21.3
2018-07-12T02:03:54.619Z,21.2
2018-07-12T02:13:53.851Z,21.2
2018-07-12T02:23:53.083Z,21.2
2018-07-12T02:33:52.316Z,21.1
2018-07-12T02:43:51.547Z,21.1
2018-07-12T02:53:50.784Z,21
2018-07-12T03:03:50.021Z,20.9
2018-07-12T03:13:49.249Z,20.9
2018-07-12T03:23:48.484Z,21
2018-07-12T03:33:47.717Z,21.1
2018-07-12T03:43:46.949Z,21.2
2018-07-12T03:53:46.184Z,21.4
2018-07-12T04:03:45.417Z,21.6
2018-07-12T04:13:44.650Z,21.8
2018-07-12T04:23:43.889Z,21.9
2018-07-12T04:33:43.123Z,22.1
2018-07-12T04:43:42.358Z,22.3
2018-07-12T04:53:41.595Z,22.6
2018-07-12T05:03:40.823Z,22.8
2018-07-12T05:13:40.057Z,23
2018-07-12T05:23:39.288Z,23.2
2018-07-12T05:33:38.523Z,23.3
2018-07-12T05:43:37.807Z,23.6
2018-07-12T05:53:36.989Z,24.1
2018-07-12T06:03:36.221Z,24.3
2018-07-12T06:13:35.457Z,24.8
2018-07-12T06:23:34.689Z,25.1
2018-07-12T06:33:33.920Z,24.9
2018-07-12T06:43:33.153Z,25.4
2018-07-12T06:53:32.391Z,25.9
2018-07-12T07:03:31.622Z,25.5
2018-07-12T07:13:30.854Z,25.4
2018-07-12T07:23:30.087Z,26.3
2018-07-12T07:33:29.321Z,26
2018-07-12T07:43:28.564Z,26.3
2018-07-12T07:53:27.789Z,26.6
2018-07-12T08:03:27.159Z,26.5
2018-07-12T08:13:26.253Z,26.9
2018-07-12T08:23:25.508Z,27.1
2018-07-12T08:33:24.787Z,27.1
2018-07-12T08:43:23.952Z,26.9
2018-07-12T08:53:23.185Z,26.6
2018-07-12T09:03:22.421Z,26.4
2018-07-12T09:13:21.651Z,26.4
2018-07-12T09:23:20.884Z,26.4
2018-07-12T09:33:20.117Z,26.4
2018-07-12T09:43:19.352Z,26.4
2018-07-12T09:53:18.583Z,26.3
2018-07-12T10:03:17.821Z,26.2
2018-07-12T10:13:17.053Z,26.1
2018-07-12T10:23:16.290Z,26.3
2018-07-12T10:33:15.525Z,26.3
2018-07-12T10:43:14.767Z,26.4
2018-07-12T10:53:13.998Z,26.4
2018-07-12T11:03:13.232Z,26.4
2018-07-12T11:13:12.462Z,26.4
2018-07-12T11:23:11.694Z,26.4
2018-07-12T11:33:10.928Z,26.4
2018-07-12T11:43:10.161Z,26.6
2018-07-12T11:53:09.396Z,26.4
2018-07-12T12:03:08.630Z,26.3
2018-07-12T12:13:07.863Z,26.3
2018-07-12T12:23:07.096Z,26.4
2018-07-12T12:33:06.337Z,26.4
2018-07-12T12:43:05.570Z,26.3
2018-07-12T12:53:04.807Z,26.5
2018-07-12T13:03:04.032Z,26.3
2018-07-12T13:13:03.266Z,26.3
2018-07-12T13:23:02.608Z,26.3
2018-07-12T13:33:01.782Z,26.1
2018-07-12T13:43:00.973Z,26.3
2018-07-12T13:53:00.208Z,26.2
2018-07-12T14:02:59.445Z,26.2
2018-07-12T14:12:58.679Z,26.1
2018-07-12T14:22:57.911Z,26.1
2018-07-12T14:32:57.141Z,26.1
2018-07-12T14:42:56.377Z,26
2018-07-12T14:52:55.613Z,26.1
2018-07-12T15:02:54.926Z,25.9
2018-07-12T15:12:54.080Z,25.9
2018-07-12T15:22:53.366Z,25.8
2018-07-12T15:32:52.555Z,25.9
2018-07-12T15:42:51.786Z,25.9
2018-07-12T15:52:51.133Z,25.8
2018-07-12T16:02:50.257Z,25.8
2018-07-12T16:12:49.493Z,25.8
2018-07-12T16:22:48.732Z,25.8
2018-07-12T16:32:47.969Z,25.9
2018-07-12T16:42:47.209Z,25.8
2018-07-12T16:52:46.442Z,25.8
2018-07-12T17:02:45.684Z,25.8
2018-07-12T17:12:44.917Z,25.8
2018-07-12T17:22:44.155Z,25.8
2018-07-12T17:32:43.393Z,25.7
2018-07-12T17:42:42.629Z,25.6
2018-07-12T17:52:41.880Z,25.6
2018-07-12T18:02:41.105Z,25.4
2018-07-12T18:12:40.343Z,25.2
2018-07-12T18:22:39.589Z,25.2
2018-07-12T18:32:38.872Z,24.6
2018-07-12T18:42:38.070Z,24.4
2018-07-12T18:52:37.300Z,24
2018-07-12T19:02:36.580Z,23.8
2018-07-12T19:12:35.779Z,24.2
2018-07-12T19:22:35.014Z,24.1
2018-07-12T19:32:34.254Z,23.8
2018-07-12T19:42:33.550Z,23.9
2018-07-12T19:52:32.732Z,23.9
2018-07-12T20:02:31.970Z,23.9
2018-07-12T20:12:31.210Z,23.9
2018-07-12T20:22:30.446Z,23.9
2018-07-12T20:32:29.685Z,23.8
2018-07-12T20:42:28.924Z,23.7
2018-07-12T20:52:28.164Z,23.6
2018-07-12T21:02:27.398Z,23.6
2018-07-12T21:12:26.637Z,23.6
2018-07-12T21:22:25.878Z,23.6
2018-07-12T21:32:25.120Z,23.6
2018-07-12T21:42:24.347Z,23.6
2018-07-12T21:52:23.583Z,23.6
2018-07-12T22:02:22.821Z,23.4
2018-07-12T22:12:22.058Z,23.4
2018-07-12T22:22:21.295Z,23.3
2018-07-12T22:32:20.574Z,23.3
2018-07-12T22:42:19.765Z,23.3
2018-07-12T22:52:19.002Z,23.2
2018-07-12T23:02:18.240Z,22.9
2018-07-12T23:12:17.480Z,22.8
2018-07-12T23:22:16.713Z,22.7
2018-07-12T23:32:15.947Z,23.1
2018-07-12T23:42:15.187Z,23.2
2018-07-12T23:52:14.425Z,23.3
